sensor_id;sensor_type;location;lat;lon;timestamp;P1;durP1;ratioP1;P2;durP2;ratioP2
67721;SDS011;58309;45.292;11.820;2022-09-03T00:00:48;6.70;;;4.25;;
67721;SDS011;58309;45.292;11.820;2022-09-03T00:06:13;8.45;;;4.43;;
67721;SDS011;58309;45.292;11.820;2022-09-03T00:11:19;6.43;;;4.70;;
67721;SDS011;58309;45.292;11.820;2022-09-03T00:13:51;7.28;;;4.78;;
67721;SDS011;58309;45.292;11.820;2022-09-03T00:16:27;5.57;;;4.72;;
67721;SDS011;58309;45.292;11.820;2022-09-03T00:18:59;5.28;;;4.78;;
67721;SDS011;58309;45.292;11.820;2022-09-03T00:24:02;8.50;;;5.28;;
67721;SDS011;58309;45.292;11.820;2022-09-03T00:26:32;9.75;;;5.03;;
67721;SDS011;58309;45.292;11.820;2022-09-03T00:29:16;7.55;;;4.20;;
67721;SDS011;58309;45.292;11.820;2022-09-03T00:31:46;8.25;;;4.75;;
67721;SDS011;58309;45.292;11.820;2022-09-03T00:34:19;5.65;;;4.55;;
67721;SDS011;58309;45.292;11.820;2022-09-03T00:36:47;7.10;;;4.80;;
67721;SDS011;58309;45.292;11.820;2022-09-03T00:39:16;5.25;;;4.75;;
67721;SDS011;58309;45.292;11.820;2022-09-03T00:47:14;8.45;;;4.88;;
67721;SDS011;58309;45.292;11.820;2022-09-03T01:00:44;6.95;;;4.93;;
67721;SDS011;58309;45.292;11.820;2022-09-03T01:03:19;6.57;;;4.70;;
67721;SDS011;58309;45.292;11.820;2022-09-03T01:09:23;5.15;;;4.65;;
67721;SDS011;58309;45.292;11.820;2022-09-03T01:11:47;9.30;;;5.28;;
67721;SDS011;58309;45.292;11.820;2022-09-03T01:20:10;8.52;;;4.97;;
67721;SDS011;58309;45.292;11.820;2022-09-03T01:38:59;7.05;;;5.40;;
67721;SDS011;58309;45.292;11.820;2022-09-03T01:47:42;8.80;;;5.60;;
67721;SDS011;58309;45.292;11.820;2022-09-03T01:59:14;5.78;;;5.28;;
67721;SDS011;58309;45.292;11.820;2022-09-03T02:02:03;6.85;;;5.28;;
67721;SDS011;58309;45.292;11.820;2022-09-03T02:04:34;6.65;;;5.10;;
67721;SDS011;58309;45.292;11.820;2022-09-03T02:07:00;6.25;;;4.90;;
67721;SDS011;58309;45.292;11.820;2022-09-03T02:09:26;6.85;;;5.10;;
67721;SDS011;58309;45.292;11.820;2022-09-03T02:12:11;11.23;;;5.30;;
67721;SDS011;58309;45.292;11.820;2022-09-03T02:14:40;6.90;;;5.45;;
67721;SDS011;58309;45.292;11.820;2022-09-03T02:17:06;8.40;;;6.55;;
67721;SDS011;58309;45.292;11.820;2022-09-03T02:19:32;10.50;;;9.18;;
67721;SDS011;58309;45.292;11.820;2022-09-03T02:21:58;11.73;;;10.25;;
67721;SDS011;58309;45.292;11.820;2022-09-03T02:24:24;13.32;;;10.70;;
67721;SDS011;58309;45.292;11.820;2022-09-03T02:26:52;12.40;;;10.40;;
67721;SDS011;58309;45.292;11.820;2022-09-03T02:29:18;12.90;;;10.90;;
67721;SDS011;58309;45.292;11.820;2022-09-03T02:31:45;16.48;;;11.40;;
67721;SDS011;58309;45.292;11.820;2022-09-03T02:34:11;14.75;;;11.38;;
67721;SDS011;58309;45.292;11.820;2022-09-03T02:36:41;14.63;;;12.10;;
67721;SDS011;58309;45.292;11.820;2022-09-03T02:39:10;17.63;;;12.93;;
67721;SDS011;58309;45.292;11.820;2022-09-03T02:41:35;13.60;;;12.05;;
67721;SDS011;58309;45.292;11.820;2022-09-03T02:44:17;16.02;;;13.18;;
67721;SDS011;58309;45.292;11.820;2022-09-03T02:46:59;14.38;;;12.88;;
67721;SDS011;58309;45.292;11.820;2022-09-03T02:49:27;15.02;;;13.35;;
67721;SDS011;58309;45.292;11.820;2022-09-03T02:51:57;14.63;;;12.73;;
67721;SDS011;58309;45.292;11.820;2022-09-03T02:54:30;14.50;;;12.88;;
67721;SDS011;58309;45.292;11.820;2022-09-03T02:57:00;17.02;;;13.00;;
67721;SDS011;58309;45.292;11.820;2022-09-03T02:59:26;13.95;;;12.45;;
67721;SDS011;58309;45.292;11.820;2022-09-03T03:01:54;15.73;;;12.32;;
67721;SDS011;58309;45.292;11.820;2022-09-03T03:04:20;18.00;;;12.85;;
67721;SDS011;58309;45.292;11.820;2022-09-03T03:06:46;20.80;;;13.40;;
67721;SDS011;58309;45.292;11.820;2022-09-03T03:09:11;14.70;;;12.43;;
67721;SDS011;58309;45.292;11.820;2022-09-03T03:11:37;13.73;;;12.32;;
67721;SDS011;58309;45.292;11.820;2022-09-03T03:14:04;16.30;;;12.18;;
67721;SDS011;58309;45.292;11.820;2022-09-03T03:16:29;14.65;;;12.30;;
67721;SDS011;58309;45.292;11.820;2022-09-03T03:18:55;15.02;;;12.52;;
67721;SDS011;58309;45.292;11.820;2022-09-03T03:21:21;13.45;;;11.65;;
67721;SDS011;58309;45.292;11.820;2022-09-03T03:23:47;13.20;;;11.85;;
67721;SDS011;58309;45.292;11.820;2022-09-03T03:26:13;14.73;;;12.05;;
67721;SDS011;58309;45.292;11.820;2022-09-03T03:31:08;16.80;;;11.80;;
67721;SDS011;58309;45.292;11.820;2022-09-03T03:33:36;12.48;;;11.15;;
67721;SDS011;58309;45.292;11.820;2022-09-03T03:36:06;15.82;;;12.00;;
67721;SDS011;58309;45.292;11.820;2022-09-03T03:38:33;15.88;;;11.77;;
67721;SDS011;58309;45.292;11.820;2022-09-03T03:40:59;12.98;;;10.95;;
67721;SDS011;58309;45.292;11.820;2022-09-03T03:43:30;12.43;;;11.15;;
67721;SDS011;58309;45.292;11.820;2022-09-03T03:45:58;12.80;;;10.93;;
67721;SDS011;58309;45.292;11.820;2022-09-03T03:48:24;12.75;;;10.63;;
67721;SDS011;58309;45.292;11.820;2022-09-03T03:50:50;13.50;;;10.27;;
67721;SDS011;58309;45.292;11.820;2022-09-03T03:53:16;10.82;;;9.73;;
67721;SDS011;58309;45.292;11.820;2022-09-03T03:55:41;11.30;;;9.77;;
67721;SDS011;58309;45.292;11.820;2022-09-03T03:58:07;11.23;;;10.02;;
67721;SDS011;58309;45.292;11.820;2022-09-03T04:00:33;13.90;;;10.25;;
67721;SDS011;58309;45.292;11.820;2022-09-03T04:03:01;15.20;;;9.32;;
67721;SDS011;58309;45.292;11.820;2022-09-03T04:05:26;14.13;;;10.07;;
67721;SDS011;58309;45.292;11.820;2022-09-03T04:07:52;11.05;;;9.23;;
67721;SDS011;58309;45.292;11.820;2022-09-03T04:10:17;11.18;;;10.05;;
67721;SDS011;58309;45.292;11.820;2022-09-03T04:12:43;11.18;;;9.48;;
67721;SDS011;58309;45.292;11.820;2022-09-03T04:15:08;11.38;;;9.55;;
67721;SDS011;58309;45.292;11.820;2022-09-03T04:17:34;11.90;;;9.65;;
67721;SDS011;58309;45.292;11.820;2022-09-03T04:20:00;11.45;;;10.05;;
67721;SDS011;58309;45.292;11.820;2022-09-03T04:22:26;10.88;;;9.77;;
67721;SDS011;58309;45.292;11.820;2022-09-03T04:24:53;9.85;;;8.88;;
67721;SDS011;58309;45.292;11.820;2022-09-03T04:27:19;10.30;;;9.20;;
67721;SDS011;58309;45.292;11.820;2022-09-03T04:29:45;11.65;;;9.77;;
67721;SDS011;58309;45.292;11.820;2022-09-03T04:32:10;11.55;;;9.18;;
67721;SDS011;58309;45.292;11.820;2022-09-03T04:34:54;12.18;;;8.70;;
67721;SDS011;58309;45.292;11.820;2022-09-03T04:37:20;13.77;;;9.50;;
67721;SDS011;58309;45.292;11.820;2022-09-03T04:39:45;10.13;;;8.95;;
67721;SDS011;58309;45.292;11.820;2022-09-03T04:42:11;11.02;;;8.90;;
67721;SDS011;58309;45.292;11.820;2022-09-03T04:44:36;9.98;;;8.32;;
67721;SDS011;58309;45.292;11.820;2022-09-03T04:47:03;9.40;;;8.35;;
67721;SDS011;58309;45.292;11.820;2022-09-03T04:49:29;8.55;;;7.72;;
67721;SDS011;58309;45.292;11.820;2022-09-03T04:51:55;9.15;;;8.13;;
67721;SDS011;58309;45.292;11.820;2022-09-03T04:54:20;11.02;;;8.07;;
67721;SDS011;58309;45.292;11.820;2022-09-03T04:56:46;9.25;;;8.32;;
67721;SDS011;58309;45.292;11.820;2022-09-03T04:59:11;10.82;;;8.00;;
67721;SDS011;58309;45.292;11.820;2022-09-03T05:01:38;11.15;;;8.10;;
67721;SDS011;58309;45.292;11.820;2022-09-03T05:04:05;8.48;;;7.63;;
67721;SDS011;58309;45.292;11.820;2022-09-03T05:06:32;10.55;;;8.25;;
67721;SDS011;58309;45.292;11.820;2022-09-03T05:08:58;8.95;;;7.90;;
67721;SDS011;58309;45.292;11.820;2022-09-03T05:11:25;9.95;;;8.27;;
67721;SDS011;58309;45.292;11.820;2022-09-03T05:13:52;9.57;;;7.93;;
67721;SDS011;58309;45.292;11.820;2022-09-03T05:16:20;8.70;;;7.88;;
67721;SDS011;58309;45.292;11.820;2022-09-03T05:18:47;10.50;;;7.32;;
67721;SDS011;58309;45.292;11.820;2022-09-03T05:21:17;9.98;;;6.93;;
67721;SDS011;58309;45.292;11.820;2022-09-03T05:23:44;10.18;;;6.60;;
67721;SDS011;58309;45.292;11.820;2022-09-03T05:26:15;7.03;;;6.30;;
67721;SDS011;58309;45.292;11.820;2022-09-03T05:28:43;7.38;;;6.68;;
67721;SDS011;58309;45.292;11.820;2022-09-03T05:31:11;10.00;;;6.20;;
67721;SDS011;58309;45.292;11.820;2022-09-03T05:33:42;10.30;;;6.18;;
67721;SDS011;58309;45.292;11.820;2022-09-03T05:36:16;8.65;;;5.70;;
67721;SDS011;58309;45.292;11.820;2022-09-03T05:38:43;6.72;;;5.55;;
67721;SDS011;58309;45.292;11.820;2022-09-03T05:41:09;5.85;;;5.30;;
67721;SDS011;58309;45.292;11.820;2022-09-03T05:43:37;7.15;;;5.22;;
67721;SDS011;58309;45.292;11.820;2022-09-03T05:46:04;6.45;;;5.35;;
67721;SDS011;58309;45.292;11.820;2022-09-03T05:48:36;6.38;;;4.95;;
67721;SDS011;58309;45.292;11.820;2022-09-03T05:51:05;6.80;;;5.10;;
67721;SDS011;58309;45.292;11.820;2022-09-03T05:53:34;7.43;;;5.47;;
67721;SDS011;58309;45.292;11.820;2022-09-03T05:56:06;9.23;;;5.70;;
67721;SDS011;58309;45.292;11.820;2022-09-03T05:58:35;6.45;;;5.00;;
67721;SDS011;58309;45.292;11.820;2022-09-03T06:01:13;7.03;;;4.80;;
67721;SDS011;58309;45.292;11.820;2022-09-03T06:03:42;9.60;;;5.10;;
67721;SDS011;58309;45.292;11.820;2022-09-03T06:06:09;5.43;;;4.93;;
67721;SDS011;58309;45.292;11.820;2022-09-03T06:08:35;6.20;;;5.15;;
67721;SDS011;58309;45.292;11.820;2022-09-03T06:11:04;5.30;;;4.80;;
67721;SDS011;58309;45.292;11.820;2022-09-03T06:16:05;8.13;;;4.63;;
67721;SDS011;58309;45.292;11.820;2022-09-03T06:18:31;8.80;;;4.78;;
67721;SDS011;58309;45.292;11.820;2022-09-03T06:21:01;5.70;;;4.55;;
67721;SDS011;58309;45.292;11.820;2022-09-03T06:23:28;5.68;;;4.68;;
67721;SDS011;58309;45.292;11.820;2022-09-03T06:28:35;5.03;;;4.63;;
67721;SDS011;58309;45.292;11.820;2022-09-03T06:31:02;6.28;;;4.30;;
67721;SDS011;58309;45.292;11.820;2022-09-03T06:33:30;6.38;;;4.57;;
67721;SDS011;58309;45.292;11.820;2022-09-03T06:35:57;6.53;;;4.90;;
67721;SDS011;58309;45.292;11.820;2022-09-03T06:38:26;5.90;;;4.70;;
67721;SDS011;58309;45.292;11.820;2022-09-03T06:40:57;5.75;;;4.78;;
67721;SDS011;58309;45.292;11.820;2022-09-03T06:43:28;6.03;;;4.85;;
67721;SDS011;58309;45.292;11.820;2022-09-03T06:46:03;7.80;;;5.65;;
67721;SDS011;58309;45.292;11.820;2022-09-03T06:48:31;5.70;;;5.20;;
67721;SDS011;58309;45.292;11.820;2022-09-03T06:50:59;9.35;;;5.20;;
67721;SDS011;58309;45.292;11.820;2022-09-03T06:53:34;7.05;;;5.28;;
67721;SDS011;58309;45.292;11.820;2022-09-03T06:56:02;7.43;;;5.25;;
67721;SDS011;58309;45.292;11.820;2022-09-03T06:58:30;9.63;;;5.22;;
67721;SDS011;58309;45.292;11.820;2022-09-03T07:01:16;8.82;;;5.18;;
67721;SDS011;58309;45.292;11.820;2022-09-03T07:03:43;10.75;;;5.55;;
67721;SDS011;58309;45.292;11.820;2022-09-03T07:06:15;10.15;;;5.60;;
67721;SDS011;58309;45.292;11.820;2022-09-03T07:08:42;6.93;;;5.68;;
67721;SDS011;58309;45.292;11.820;2022-09-03T07:11:12;6.50;;;5.55;;
67721;SDS011;58309;45.292;11.820;2022-09-03T07:13:44;8.98;;;5.75;;
67721;SDS011;58309;45.292;11.820;2022-09-03T07:16:25;9.82;;;5.97;;
67721;SDS011;58309;45.292;11.820;2022-09-03T07:18:53;5.72;;;5.18;;
67721;SDS011;58309;45.292;11.820;2022-09-03T07:21:21;6.15;;;5.30;;
67721;SDS011;58309;45.292;11.820;2022-09-03T07:23:52;6.10;;;4.70;;
67721;SDS011;58309;45.292;11.820;2022-09-03T07:26:19;6.82;;;5.15;;
67721;SDS011;58309;45.292;11.820;2022-09-03T07:28:51;6.78;;;4.97;;
67721;SDS011;58309;45.292;11.820;2022-09-03T07:31:21;8.48;;;5.15;;
67721;SDS011;58309;45.292;11.820;2022-09-03T07:33:50;9.50;;;5.20;;
67721;SDS011;58309;45.292;11.820;2022-09-03T07:36:21;10.43;;;5.03;;
67721;SDS011;58309;45.292;11.820;2022-09-03T07:38:48;6.90;;;4.45;;
67721;SDS011;58309;45.292;11.820;2022-09-03T07:41:14;5.43;;;4.85;;
67721;SDS011;58309;45.292;11.820;2022-09-03T07:43:41;7.95;;;4.93;;
67721;SDS011;58309;45.292;11.820;2022-09-03T07:46:17;10.05;;;4.40;;
67721;SDS011;58309;45.292;11.820;2022-09-03T07:48:53;7.15;;;4.20;;
67721;SDS011;58309;45.292;11.820;2022-09-03T07:51:21;5.00;;;3.88;;
67721;SDS011;58309;45.292;11.820;2022-09-03T07:53:51;12.77;;;4.40;;
67721;SDS011;58309;45.292;11.820;2022-09-03T07:56:17;10.68;;;4.30;;
67721;SDS011;58309;45.292;11.820;2022-09-03T07:58:43;7.75;;;3.95;;
67721;SDS011;58309;45.292;11.820;2022-09-03T08:01:19;11.60;;;4.07;;
67721;SDS011;58309;45.292;11.820;2022-09-03T08:03:46;7.65;;;3.65;;
67721;SDS011;58309;45.292;11.820;2022-09-03T08:06:13;8.68;;;3.65;;
67721;SDS011;58309;45.292;11.820;2022-09-03T08:08:40;7.10;;;3.90;;
67721;SDS011;58309;45.292;11.820;2022-09-03T08:11:11;4.72;;;3.38;;
67721;SDS011;58309;45.292;11.820;2022-09-03T08:13:39;8.70;;;3.28;;
67721;SDS011;58309;45.292;11.820;2022-09-03T08:16:15;5.60;;;3.30;;
67721;SDS011;58309;45.292;11.820;2022-09-03T08:18:44;4.57;;;3.70;;
67721;SDS011;58309;45.292;11.820;2022-09-03T08:21:15;8.63;;;3.50;;
67721;SDS011;58309;45.292;11.820;2022-09-03T08:23:43;12.38;;;3.30;;
67721;SDS011;58309;45.292;11.820;2022-09-03T08:26:14;9.27;;;3.50;;
67721;SDS011;58309;45.292;11.820;2022-09-03T08:28:40;4.35;;;3.17;;
67721;SDS011;58309;45.292;11.820;2022-09-03T08:33:37;5.85;;;3.70;;
67721;SDS011;58309;45.292;11.820;2022-09-03T08:36:06;8.45;;;3.47;;
67721;SDS011;58309;45.292;11.820;2022-09-03T08:38:40;4.57;;;3.28;;
67721;SDS011;58309;45.292;11.820;2022-09-03T08:41:11;6.43;;;3.28;;
67721;SDS011;58309;45.292;11.820;2022-09-03T08:46:13;3.53;;;2.75;;
67721;SDS011;58309;45.292;11.820;2022-09-03T08:48:40;6.60;;;2.70;;
67721;SDS011;58309;45.292;11.820;2022-09-03T08:51:07;7.35;;;3.00;;
67721;SDS011;58309;45.292;11.820;2022-09-03T08:53:39;4.97;;;2.70;;
67721;SDS011;58309;45.292;11.820;2022-09-03T08:56:10;4.93;;;2.90;;
67721;SDS011;58309;45.292;11.820;2022-09-03T08:58:50;3.83;;;3.03;;
67721;SDS011;58309;45.292;11.820;2022-09-03T09:01:25;6.22;;;3.10;;
67721;SDS011;58309;45.292;11.820;2022-09-03T09:09:56;4.22;;;2.33;;
67721;SDS011;58309;45.292;11.820;2022-09-03T09:21:19;3.20;;;2.58;;
67721;SDS011;58309;45.292;11.820;2022-09-03T09:23:57;2.55;;;2.13;;
67721;SDS011;58309;45.292;11.820;2022-09-03T09:26:28;6.10;;;2.55;;
67721;SDS011;58309;45.292;11.820;2022-09-03T09:29:05;4.00;;;3.22;;
67721;SDS011;58309;45.292;11.820;2022-09-03T09:31:36;3.42;;;3.08;;
67721;SDS011;58309;45.292;11.820;2022-09-03T09:34:05;3.38;;;2.63;;
67721;SDS011;58309;45.292;11.820;2022-09-03T09:36:36;6.07;;;2.40;;
67721;SDS011;58309;45.292;11.820;2022-09-03T09:39:10;3.22;;;2.22;;
67721;SDS011;58309;45.292;11.820;2022-09-03T09:41:40;3.63;;;2.53;;
67721;SDS011;58309;45.292;11.820;2022-09-03T09:44:06;3.17;;;2.10;;
67721;SDS011;58309;45.292;11.820;2022-09-03T09:46:36;3.33;;;2.28;;
67721;SDS011;58309;45.292;11.820;2022-09-03T09:49:07;2.78;;;2.38;;
67721;SDS011;58309;45.292;11.820;2022-09-03T09:51:59;6.47;;;2.10;;
67721;SDS011;58309;45.292;11.820;2022-09-03T09:54:30;3.38;;;2.55;;
67721;SDS011;58309;45.292;11.820;2022-09-03T09:57:00;5.40;;;2.35;;
67721;SDS011;58309;45.292;11.820;2022-09-03T09:59:27;5.40;;;2.28;;
67721;SDS011;58309;45.292;11.820;2022-09-03T10:02:03;5.10;;;2.60;;
67721;SDS011;58309;45.292;11.820;2022-09-03T10:04:36;4.03;;;2.45;;
67721;SDS011;58309;45.292;11.820;2022-09-03T10:10:03;4.65;;;2.10;;
67721;SDS011;58309;45.292;11.820;2022-09-03T10:12:30;5.45;;;2.53;;
67721;SDS011;58309;45.292;11.820;2022-09-03T10:18:01;6.20;;;2.25;;
67721;SDS011;58309;45.292;11.820;2022-09-03T10:23:15;6.88;;;2.50;;
67721;SDS011;58309;45.292;11.820;2022-09-03T10:28:17;2.40;;;2.10;;
67721;SDS011;58309;45.292;11.820;2022-09-03T10:33:23;4.53;;;2.25;;
67721;SDS011;58309;45.292;11.820;2022-09-03T10:36:07;4.15;;;2.28;;
67721;SDS011;58309;45.292;11.820;2022-09-03T10:38:36;6.00;;;2.40;;
67721;SDS011;58309;45.292;11.820;2022-09-03T10:50:13;4.78;;;2.50;;
67721;SDS011;58309;45.292;11.820;2022-09-03T11:03:58;3.17;;;2.40;;
67721;SDS011;58309;45.292;11.820;2022-09-03T11:06:32;2.92;;;2.65;;
67721;SDS011;58309;45.292;11.820;2022-09-03T11:12:30;4.25;;;2.38;;
67721;SDS011;58309;45.292;11.820;2022-09-03T11:14:56;7.78;;;2.38;;
67721;SDS011;58309;45.292;11.820;2022-09-03T11:17:32;5.00;;;2.78;;
67721;SDS011;58309;45.292;11.820;2022-09-03T11:22:42;6.25;;;2.40;;
67721;SDS011;58309;45.292;11.820;2022-09-03T11:25:10;3.05;;;2.50;;
67721;SDS011;58309;45.292;11.820;2022-09-03T11:27:47;3.37;;;2.50;;
67721;SDS011;58309;45.292;11.820;2022-09-03T11:30:47;4.68;;;2.50;;
67721;SDS011;58309;45.292;11.820;2022-09-03T11:35:59;2.42;;;2.10;;
67721;SDS011;58309;45.292;11.820;2022-09-03T11:38:27;2.70;;;2.33;;
67721;SDS011;58309;45.292;11.820;2022-09-03T11:41:03;3.22;;;2.30;;
67721;SDS011;58309;45.292;11.820;2022-09-03T11:43:48;2.72;;;2.28;;
67721;SDS011;58309;45.292;11.820;2022-09-03T11:48:46;3.78;;;2.25;;
67721;SDS011;58309;45.292;11.820;2022-09-03T11:56:28;7.40;;;2.13;;
67721;SDS011;58309;45.292;11.820;2022-09-03T12:01:40;4.50;;;2.40;;
67721;SDS011;58309;45.292;11.820;2022-09-03T12:04:12;2.58;;;2.10;;
67721;SDS011;58309;45.292;11.820;2022-09-03T12:09:22;3.88;;;2.50;;
67721;SDS011;58309;45.292;11.820;2022-09-03T12:20:47;2.70;;;2.30;;
67721;SDS011;58309;45.292;11.820;2022-09-03T12:26:08;2.55;;;2.33;;
67721;SDS011;58309;45.292;11.820;2022-09-03T12:28:39;4.97;;;2.25;;
67721;SDS011;58309;45.292;11.820;2022-09-03T12:31:06;2.20;;;2.00;;
67721;SDS011;58309;45.292;11.820;2022-09-03T12:33:45;4.90;;;2.50;;
67721;SDS011;58309;45.292;11.820;2022-09-03T12:36:12;5.03;;;2.10;;
67721;SDS011;58309;45.292;11.820;2022-09-03T12:38:38;6.45;;;2.45;;
67721;SDS011;58309;45.292;11.820;2022-09-03T12:41:03;6.75;;;2.20;;
67721;SDS011;58309;45.292;11.820;2022-09-03T12:43:29;3.25;;;2.50;;
67721;SDS011;58309;45.292;11.820;2022-09-03T12:45:55;4.35;;;2.60;;
67721;SDS011;58309;45.292;11.820;2022-09-03T12:48:21;2.53;;;1.80;;
67721;SDS011;58309;45.292;11.820;2022-09-03T12:50:47;3.20;;;2.15;;
67721;SDS011;58309;45.292;11.820;2022-09-03T12:53:21;2.42;;;1.90;;
67721;SDS011;58309;45.292;11.820;2022-09-03T12:55:53;2.95;;;2.15;;
67721;SDS011;58309;45.292;11.820;2022-09-03T13:00:58;3.80;;;2.17;;
67721;SDS011;58309;45.292;11.820;2022-09-03T13:03:48;2.30;;;2.05;;
67721;SDS011;58309;45.292;11.820;2022-09-03T13:06:25;6.63;;;2.17;;
67721;SDS011;58309;45.292;11.820;2022-09-03T13:08:55;2.55;;;2.22;;
67721;SDS011;58309;45.292;11.820;2022-09-03T13:11:25;4.57;;;2.08;;
67721;SDS011;58309;45.292;11.820;2022-09-03T13:14:11;3.22;;;2.08;;
67721;SDS011;58309;45.292;11.820;2022-09-03T13:21:58;3.90;;;2.08;;
67721;SDS011;58309;45.292;11.820;2022-09-03T13:30:11;2.95;;;2.20;;
67721;SDS011;58309;45.292;11.820;2022-09-03T13:35:37;4.20;;;1.90;;
67721;SDS011;58309;45.292;11.820;2022-09-03T13:48:56;3.42;;;1.77;;
67721;SDS011;58309;45.292;11.820;2022-09-03T13:51:53;4.70;;;1.90;;
67721;SDS011;58309;45.292;11.820;2022-09-03T13:54:27;2.75;;;1.83;;
67721;SDS011;58309;45.292;11.820;2022-09-03T13:57:00;3.40;;;2.00;;
67721;SDS011;58309;45.292;11.820;2022-09-03T14:02:26;2.20;;;1.85;;
67721;SDS011;58309;45.292;11.820;2022-09-03T14:05:08;2.13;;;1.77;;
67721;SDS011;58309;45.292;11.820;2022-09-03T14:13:41;4.10;;;2.20;;
67721;SDS011;58309;45.292;11.820;2022-09-03T14:16:38;8.55;;;2.08;;
67721;SDS011;58309;45.292;11.820;2022-09-03T14:19:16;3.38;;;1.90;;
67721;SDS011;58309;45.292;11.820;2022-09-03T14:27:20;2.22;;;2.03;;
67721;SDS011;58309;45.292;11.820;2022-09-03T14:30:17;3.25;;;1.90;;
67721;SDS011;58309;45.292;11.820;2022-09-03T14:35:38;2.67;;;1.80;;
67721;SDS011;58309;45.292;11.820;2022-09-03T14:51:45;5.15;;;1.73;;
67721;SDS011;58309;45.292;11.820;2022-09-03T15:02:49;2.10;;;1.90;;
67721;SDS011;58309;45.292;11.820;2022-09-03T15:17:59;3.40;;;1.88;;
67721;SDS011;58309;45.292;11.820;2022-09-03T15:30:33;4.13;;;2.03;;
67721;SDS011;58309;45.292;11.820;2022-09-03T15:33:17;3.25;;;1.90;;
67721;SDS011;58309;45.292;11.820;2022-09-03T15:44:15;2.67;;;2.10;;
67721;SDS011;58309;45.292;11.820;2022-09-03T15:55:09;6.90;;;2.10;;
67721;SDS011;58309;45.292;11.820;2022-09-03T16:00:28;4.07;;;1.90;;
67721;SDS011;58309;45.292;11.820;2022-09-03T16:03:05;2.88;;;1.80;;
67721;SDS011;58309;45.292;11.820;2022-09-03T16:05:54;2.00;;;1.80;;
67721;SDS011;58309;45.292;11.820;2022-09-03T16:19:22;2.17;;;1.98;;
67721;SDS011;58309;45.292;11.820;2022-09-03T16:25:14;2.85;;;1.83;;
67721;SDS011;58309;45.292;11.820;2022-09-03T16:33:22;3.78;;;2.10;;
67721;SDS011;58309;45.292;11.820;2022-09-03T16:38:50;3.10;;;1.85;;
67721;SDS011;58309;45.292;11.820;2022-09-03T16:41:47;2.10;;;1.90;;
67721;SDS011;58309;45.292;11.820;2022-09-03T16:44:22;2.20;;;1.92;;
67721;SDS011;58309;45.292;11.820;2022-09-03T17:00:21;5.27;;;3.97;;
67721;SDS011;58309;45.292;11.820;2022-09-03T17:20:03;4.85;;;3.70;;
67721;SDS011;58309;45.292;11.820;2022-09-03T17:25:04;5.60;;;3.22;;
67721;SDS011;58309;45.292;11.820;2022-09-03T17:36:17;4.50;;;2.47;;
67721;SDS011;58309;45.292;11.820;2022-09-03T17:41:41;8.20;;;3.80;;
67721;SDS011;58309;45.292;11.820;2022-09-03T17:44:28;13.32;;;11.50;;
67721;SDS011;58309;45.292;11.820;2022-09-03T17:55:24;7.55;;;5.22;;
67721;SDS011;58309;45.292;11.820;2022-09-03T18:03:38;5.18;;;4.00;;
67721;SDS011;58309;45.292;11.820;2022-09-03T18:09:11;12.48;;;8.52;;
67721;SDS011;58309;45.292;11.820;2022-09-03T18:14:27;19.40;;;11.80;;
67721;SDS011;58309;45.292;11.820;2022-09-03T18:19:43;4.47;;;3.42;;
67721;SDS011;58309;45.292;11.820;2022-09-03T18:22:37;11.00;;;7.10;;
67721;SDS011;58309;45.292;11.820;2022-09-03T18:25:36;8.25;;;6.57;;
67721;SDS011;58309;45.292;11.820;2022-09-03T18:28:34;9.83;;;6.10;;
67721;SDS011;58309;45.292;11.820;2022-09-03T18:31:23;23.90;;;19.27;;
67721;SDS011;58309;45.292;11.820;2022-09-03T18:34:07;19.30;;;10.38;;
67721;SDS011;58309;45.292;11.820;2022-09-03T18:36:51;29.98;;;7.55;;
67721;SDS011;58309;45.292;11.820;2022-09-03T18:39:39;23.67;;;10.00;;
67721;SDS011;58309;45.292;11.820;2022-09-03T18:57:18;4.40;;;3.00;;
67721;SDS011;58309;45.292;11.820;2022-09-03T19:00:06;2.92;;;2.63;;
67721;SDS011;58309;45.292;11.820;2022-09-03T19:12:36;3.83;;;2.92;;
67721;SDS011;58309;45.292;11.820;2022-09-03T19:15:28;5.53;;;3.17;;
67721;SDS011;58309;45.292;11.820;2022-09-03T19:18:20;5.50;;;3.05;;
67721;SDS011;58309;45.292;11.820;2022-09-03T19:24:07;6.47;;;3.03;;
67721;SDS011;58309;45.292;11.820;2022-09-03T19:26:57;4.50;;;3.20;;
67721;SDS011;58309;45.292;11.820;2022-09-03T19:58:33;3.60;;;3.30;;
67721;SDS011;58309;45.292;11.820;2022-09-03T20:01:33;4.75;;;3.20;;
67721;SDS011;58309;45.292;11.820;2022-09-03T20:04:19;5.90;;;3.08;;
67721;SDS011;58309;45.292;11.820;2022-09-03T20:07:09;5.55;;;3.10;;
67721;SDS011;58309;45.292;11.820;2022-09-03T20:09:53;5.30;;;3.10;;
67721;SDS011;58309;45.292;11.820;2022-09-03T20:12:42;5.72;;;3.42;;
67721;SDS011;58309;45.292;11.820;2022-09-03T20:15:12;3.80;;;3.17;;
67721;SDS011;58309;45.292;11.820;2022-09-03T20:22:58;4.53;;;3.40;;
67721;SDS011;58309;45.292;11.820;2022-09-03T20:25:32;3.95;;;3.50;;
67721;SDS011;58309;45.292;11.820;2022-09-03T20:50:12;4.20;;;3.80;;
67721;SDS011;58309;45.292;11.820;2022-09-03T20:55:48;4.47;;;4.00;;
67721;SDS011;58309;45.292;11.820;2022-09-03T21:14:46;9.57;;;4.20;;
67721;SDS011;58309;45.292;11.820;2022-09-03T21:25:31;7.70;;;5.00;;
67721;SDS011;58309;45.292;11.820;2022-09-03T21:28:08;5.43;;;4.57;;
67721;SDS011;58309;45.292;11.820;2022-09-03T21:30:40;4.40;;;4.00;;
67721;SDS011;58309;45.292;11.820;2022-09-03T21:33:12;4.82;;;4.30;;
67721;SDS011;58309;45.292;11.820;2022-09-03T21:38:45;5.13;;;4.30;;
67721;SDS011;58309;45.292;11.820;2022-09-03T21:41:20;5.72;;;4.53;;
67721;SDS011;58309;45.292;11.820;2022-09-03T21:43:56;7.05;;;5.40;;
67721;SDS011;58309;45.292;11.820;2022-09-03T21:46:30;10.77;;;6.22;;
67721;SDS011;58309;45.292;11.820;2022-09-03T21:49:02;13.13;;;6.60;;
67721;SDS011;58309;45.292;11.820;2022-09-03T21:51:46;9.48;;;7.25;;
67721;SDS011;58309;45.292;11.820;2022-09-03T21:54:28;8.20;;;6.60;;
67721;SDS011;58309;45.292;11.820;2022-09-03T21:59:43;9.63;;;6.50;;
67721;SDS011;58309;45.292;11.820;2022-09-03T22:02:24;7.75;;;6.00;;
67721;SDS011;58309;45.292;11.820;2022-09-03T22:04:55;9.38;;;6.50;;
67721;SDS011;58309;45.292;11.820;2022-09-03T22:12:32;7.55;;;6.13;;
67721;SDS011;58309;45.292;11.820;2022-09-03T22:15:24;11.65;;;6.53;;
67721;SDS011;58309;45.292;11.820;2022-09-03T22:20:29;10.45;;;6.45;;
67721;SDS011;58309;45.292;11.820;2022-09-03T22:26:03;11.25;;;6.40;;
67721;SDS011;58309;45.292;11.820;2022-09-03T22:28:45;8.70;;;5.97;;
67721;SDS011;58309;45.292;11.820;2022-09-03T22:31:38;7.78;;;5.80;;
67721;SDS011;58309;45.292;11.820;2022-09-03T22:34:25;7.68;;;5.13;;
67721;SDS011;58309;45.292;11.820;2022-09-03T22:37:01;7.93;;;5.45;;
67721;SDS011;58309;45.292;11.820;2022-09-03T22:39:32;6.72;;;5.72;;
67721;SDS011;58309;45.292;11.820;2022-09-03T22:42:25;8.98;;;5.70;;
67721;SDS011;58309;45.292;11.820;2022-09-03T22:50:24;7.05;;;5.78;;
67721;SDS011;58309;45.292;11.820;2022-09-03T22:55:47;7.20;;;5.70;;
67721;SDS011;58309;45.292;11.820;2022-09-03T22:58:19;8.68;;;6.00;;
67721;SDS011;58309;45.292;11.820;2022-09-03T23:00:51;7.70;;;6.05;;
67721;SDS011;58309;45.292;11.820;2022-09-03T23:03:26;8.15;;;6.30;;
67721;SDS011;58309;45.292;11.820;2022-09-03T23:06:16;9.75;;;6.50;;
67721;SDS011;58309;45.292;11.820;2022-09-03T23:08:57;7.22;;;6.50;;
67721;SDS011;58309;45.292;11.820;2022-09-03T23:11:29;10.07;;;6.40;;
67721;SDS011;58309;45.292;11.820;2022-09-03T23:14:12;7.72;;;6.18;;